METAR / TAF

La liste des METAR et des TAF n’est pas destinée pour un briefing météo pour des raisons techniques (disponibilité, cycle de renouvellement). Il faut plutôt utiliser le skybriefing de Skyguide ou le TAMSI (plateforme de self-briefing météo conçue par MétéoSuisse pour les entreprises dans le domaine de l’aéronautique, questions et demandes d’informations à 

Formulaire de contact

 

METAR Suisse

METAR     LSZH 231250Z 24017G28KT 9999 FEW050 SCT210 26/15 Q1015
               NOSIG=
METAR     LSZH 231320Z 25020KT 9999 FEW050 27/14 Q1015 NOSIG=
METAR     LSGG 231250Z 23017KT 9999 FEW050 SCT120 28/14 Q1019=
METAR     LSGG 231320Z 22018KT 9999 FEW060 SCT150 28/14 Q1018 NOSIG=
METAR     LFSB 231300Z 26016KT 9999 FEW030 BKN050 26/16 Q1015 TEMPO
               26018G30KT=
METAR     LSZB 231250Z 27012KT 220V310 9999 FEW070 SCT160 26/14
               Q1017 NOSIG=
METAR     LSZB 231320Z 27014G24KT 210V310 9999 FEW070 SCT160 26/15
               Q1016 NOSIG=
METAR     LSZA 231250Z 20006KT 9999 SCT050 27/18 Q1017 NOSIG=
METAR     LSZA 231320Z AUTO 20005KT 150V220 CAVOK 27/19 Q1016=
METAR     LSZG 231250Z 25017KT 9999 SCT055 25/14 Q1016 NOSIG=
METAR     LSZG 231320Z 24017KT 9999 SCT060 SCT150 26/14 Q1016 NOSIG=
METAR     LSZR 231250Z 09007KT CAVOK 24/17 Q1015 NOSIG RMK H=
METAR     LSZR 231320Z 07005KT CAVOK 24/17 Q1014 NOSIG RMK I=
METAR     LSGS 231250Z 26006KT 220V330 9999 FEW100 BKN200 27/13
               Q1017=
METAR     LSGS 231320Z 26007KT 9999 FEW100 BKN200 26/13 Q1017=
METAR     LSGC 231250Z 23013KT 180V260 9999 BKN019 19/14 Q1020=
METAR     LSGC 231320Z 24014G30KT 210V280 9999 BKN021 20/14 Q1020=
METAR     LSZC 231250Z AUTO 07009KT 9999 FEW110 OVC130 23/16 Q1016=
METAR     LSZC 231320Z AUTO 06006KT 9999 NSC 24/15 Q1015=
METAR RRA LSZL 231320Z AUTO 26004KT 220V300 9999NDV NCD 26/18 Q1016
               RMK=
METAR     LSZL 231250Z AUTO 27005KT 200V340 9999NDV NCD 26/19 Q1016
               RMK=
METAR     LSZS 231250Z 20017KT 9999 SCT060 23/07 Q1022 RMK O=
METAR     LSZS 231320Z 21015KT 9999 SCT060 22/09 Q1021 RMK P=
METAR RRA LSMA 231320Z AUTO 03005KT 340V070 9999NDV NCD 25/16 Q1015
               RMK=
METAR     LSMA 231250Z AUTO 03006KT 9999NDV FEW057 24/16 Q1016 RMK=
METAR RRA LSMD 231250Z AUTO 29012KT 230V330 9999NDV FEW055 27/15
               Q1015 RMK=
METAR RRA LSMD 231320Z AUTO 29012KT 240V330 9999NDV FEW053 27/15
               Q1015 RMK=
METAR     LSME 231250Z AUTO 27008KT 240V300 9999NDV FEW110 27/15
               Q1016 RMK=
METAR     LSME 231320Z AUTO 27007KT 240V310 9999NDV FEW120 27/15
               Q1015 RMK=
METAR RRB LSMM 231250Z AUTO 00000KT 9999NDV FEW110 25/16 Q1017 RMK=
METAR RRB LSMM 231320Z AUTO 27004KT 240V320 9999NDV FEW110 24/16
               Q1017 RMK=
METAR     LSMP 231250Z 27015KT 240V310 9999 FEW140 27/15 Q1017 RMK
               BLU+=
METAR     LSMP 231320Z 27016KT 9999 FEW051 27/15 Q1017 RMK BLU+=
METAR     LSMS 231250Z 26006KT 220V330 9999 FEW100 BKN200 27/13
               Q1017 RMK BLU=
METAR     LSMS 231320Z 26007KT 9999 FEW100 BKN200 26/13 Q1017 RMK
               BLU=
Actualisé le dimanche 23 septembre 2018 à 15h41

TAF Suisse

TAF     LSZH 231125Z 2312/2418 23011KT 9999 FEW045 SCT060
             TX26/2314Z TN08/2405Z TX16/2414Z TEMPO 2312/2316
             24012G25KT BECMG 2316/2319 24015G35KT SHRA SCT040TCU
             TEMPO 2319/2322 29025G45KT PROB30 TEMPO 2318/2321
             30030G55KT 3000 TSRA SCT040CB BECMG 2321/2324 30010KT
             NSW BKN035 BECMG 2401/2404 VRB03KT BECMG 2407/2410
             04007KT SCT040=
TAF     LSGG 231125Z 2312/2418 21010KT 9999 FEW040 BKN050
             TX27/2315Z TN10/2405Z TX16/2415Z TEMPO 2319/2322 4500
             TSRA SCT045CB PROB30 TEMPO 2320/2322 33015G30KT BECMG
             2322/2324 04010KT BECMG 2406/2409 04020G30KT=
TAF     LFSB 231105Z 2312/2412 25016G28KT 9999 SCT030 BKN050 TEMPO
             2316/2318 26020G38KT RA TEMPO 2318/2321 29022G43KT
             3000 +RA BKN015 BKN030CB BECMG 2321/2323 33010KT
             TEMPO 2400/2407 BKN012=
TAF     LSGS 231125Z 2312/2321 VRB03KT 9999 FEW090 BECMG 2314/2316
             26010KT TEMPO 2314/2316 26015G25KT=
TAF     LSZA 231125Z 2312/2321 20006KT 9999 FEW050 PROB30 TEMPO
             2312/2315 19010KT PROB40 TEMPO 2317/2321 SHRA
             SCT040TCU=
TAF     LSZB 231125Z 2312/2321 26012KT 9999 SCT060 TEMPO 2312/2318
             24015G25KT BECMG 2317/2319 30020G35KT TEMPO 2317/2321
             SHRA BKN035TCU PROB40 TEMPO 2318/2321 30025G45KT 4000
             TSRA BKN030CB=
TAF     LSZG 231125Z 2312/2321 24015KT 9999 FEW030 BKN040 BECMG
             2312/2314 25020G30KT TEMPO 2315/2318 24025G40KT
             PROB30 TEMPO 2319/2321 30020G50KT 3000 TSRA SCT040CB=
TAF     LSZR 231125Z 2312/2321 VRB03KT 9999 FEW080 BECMG 2312/2315
             26010KT BECMG 2315/2318 26015G25KT BKN050 BECMG
             2318/2320 30025G40KT PROB40 TEMPO 2319/2321
             30030G60KT TSRA SCT030CB=
TAF     LSGC 231125Z 2312/2321 25010KT 9999 SCT019 SCT030 BECMG
             2313/2315 23015G25KT TEMPO 2315/2317 23015G35KT BECMG
             2316/2318 BKN010 TEMPO 2318/2320 4500 TSRA SCT020CB=
TAF     LSZS 231125Z 2312/2321 21018KT 9999 SCT060 TX20/2314Z TEMPO
             2312/2318 20020G30KT BECMG 2318/2321 VRB03KT PROB30
             TEMPO 2318/2321 SHRA SCT040TCU=
TAF     LSMA 230925Z 2310/2416 VRB03KT 9999 BKN070 BECMG 2310/2313
             24010G25KT BECMG 2317/2320 24020G40KT 4500 SHRA
             SCT040TCU PROB30 TEMPO 2318/2323 04025G55KT 3000 TSRA
             SCT040CB BECMG 2321/2324 04010KT 9999 NSW BKN030
             TEMPO 2400/2406 4500 SHRA SCT040TCU BECMG 2400/2403
             VRB03KT=
TAF     LSMD 230925Z 2310/2416 25010KT 9999 SCT050 BKN070 TEMPO
             2310/2317 24015G25KT BECMG 2317/2319 24015G35KT SHRA
             SCT040TCU TEMPO 2318/2322 29025G45KT PROB30 TEMPO
             2318/2321 30030G55KT 3000 TSRA SCT040CB BECMG
             2321/2324 30010KT NSW SCT040 BECMG 2407/2410 06008KT
             BECMG 2414/2416 CAVOK=
TAF     LSME 230925Z 2310/2416 VRB03KT 9999 BKN060 BECMG 2310/2313
             24010G25KT BECMG 2317/2320 29015G35KT 4500 SHRA
             SCT040TCU PROB30 TEMPO 2318/2323 30025G55KT 3000 TSRA
             SCT040CB BECMG 2322/2401 30010KT 9999 NSW BKN040
             TEMPO 2401/2408 4500 SHRA SCT040TCU BECMG 2400/2403
             VRB03KT=
TAF     LSMM 230925Z 2310/2416 VRB03KT 9999 FEW085 BKN100 TEMPO
             2310/2317 24015G25KT BECMG 2317/2319 24015G35KT SHRA
             SCT040TCU PROB30 TEMPO 2318/2321 27020G45KT 3000 TSRA
             SCT040CB BECMG 2321/2324 VRB03KT BECMG 2323/2402 NSW
             BKN040 TEMPO 2402/2409 SHRA SCT040TCU TEMPO 2412/2416
             11010KT=
TAF     LSMP 230925Z 2310/2416 23010KT 9999 BKN050 BKN070 BECMG
             2311/2313 22015G25KT TEMPO 2317/2321 4500 TSRA
             SCT020CB BKN025 PROB30 TEMPO 2320/2323 33025G35KT
             BECMG 2404/2406 06010G20KT BECMG 2411/2413
             06020G30KT=
Actualisé le dimanche 23 septembre 2018 à 15h03